Time;durP1;ratioP1;P1;durP2;ratioP2;P2;SDS_P1;SDS_P2;PMS_P1;PMS_P2;Temp;Humidity;BMP_temperature;BMP_pressure;BME280_temperature;BME280_humidity;BME280_pressure;Samples;Min_cycle;Max_cycle;Signal;HPM_P1;HPM_P2
2023/06/11 00:00:37;;;;;;;5.35;3.60;;;;;;;19.65;100.00;98554.97;5069329;28;20044;-71
2023/06/11 00:03:04;;;;;;;5.78;3.90;;;;;;;19.57;100.00;98549.16;5065065;28;20017;-72
2023/06/11 00:05:29;;;;;;;7.05;4.28;;;;;;;19.49;100.00;98548.63;5042528;28;20119;-71
2023/06/11 00:08:02;;;;;;;5.15;3.88;;;;;;;19.46;100.00;98556.53;5065670;28;20447;-71
2023/06/11 00:10:27;;;;;;;5.47;3.55;;;;;;;19.38;100.00;98546.06;5070010;28;20478;-71
2023/06/11 00:12:53;;;;;;;8.90;4.13;;;;;;;19.39;100.00;98550.50;5052161;28;20024;-71
2023/06/11 00:15:18;;;;;;;4.65;4.15;;;;;;;19.40;100.00;98555.69;5046158;28;20036;-71
2023/06/11 00:17:44;;;;;;;5.07;3.30;;;;;;;19.42;100.00;98556.25;5065790;28;20024;-72
2023/06/11 00:20:11;;;;;;;6.78;4.55;;;;;;;19.39;100.00;98554.06;5066669;28;20043;-71
2023/06/11 00:22:39;;;;;;;5.35;3.38;;;;;;;19.43;100.00;98559.81;5069418;28;20055;-72
2023/06/11 00:25:06;;;;;;;4.60;3.40;;;;;;;19.41;100.00;98565.59;5069266;28;20089;-72
2023/06/11 00:27:33;;;;;;;5.03;3.33;;;;;;;19.35;100.00;98554.84;5073823;28;20088;-71
2023/06/11 00:30:01;;;;;;;5.40;3.53;;;;;;;19.30;100.00;98554.81;5086253;28;20043;-71
2023/06/11 00:32:26;;;;;;;3.75;3.05;;;;;;;19.24;100.00;98546.56;5068359;28;20033;-71
2023/06/11 00:34:51;;;;;;;4.95;3.35;;;;;;;19.27;100.00;98546.03;5058070;28;20031;-71
2023/06/11 00:37:17;;;;;;;6.40;3.40;;;;;;;19.18;100.00;98541.31;5067029;28;20099;-72
2023/06/11 00:39:42;;;;;;;5.60;3.17;;;;;;;19.18;100.00;98550.38;5055156;28;20532;-71
2023/06/11 00:42:10;;;;;;;5.32;3.70;;;;;;;19.18;100.00;98547.63;5066453;28;20044;-71
2023/06/11 00:44:36;;;;;;;9.65;3.17;;;;;;;19.14;100.00;98545.69;5075323;28;20443;-71
2023/06/11 00:47:02;;;;;;;5.88;3.33;;;;;;;19.09;100.00;98543.72;5068394;28;20147;-71
2023/06/11 00:49:27;;;;;;;5.03;3.55;;;;;;;19.05;100.00;98537.97;5067804;28;20090;-71
2023/06/11 00:51:52;;;;;;;8.20;3.30;;;;;;;19.11;100.00;98548.97;5067897;28;20028;-71
2023/06/11 00:54:18;;;;;;;5.05;3.40;;;;;;;19.02;100.00;98549.47;5068146;28;20020;-71
2023/06/11 00:56:43;;;;;;;5.75;3.40;;;;;;;19.03;100.00;98550.28;5055271;28;20044;-71
2023/06/11 00:59:10;;;;;;;9.35;3.80;;;;;;;18.97;100.00;98557.66;5037800;28;20032;-71
2023/06/11 01:01:41;;;;;;;4.18;3.00;;;;;;;19.00;100.00;98562.59;5065630;28;20044;-71
2023/06/11 01:04:17;;;;;;;5.82;3.47;;;;;;;18.91;100.00;98563.34;5063768;28;20017;-71
2023/06/11 01:06:51;;;;;;;8.23;3.53;;;;;;;18.88;100.00;98561.97;5048478;28;20021;-71
2023/06/11 01:09:20;;;;;;;5.72;3.40;;;;;;;18.79;100.00;98569.03;5066087;28;20513;-71
2023/06/11 01:11:48;;;;;;;7.37;3.40;;;;;;;18.72;100.00;98563.72;5070464;28;20529;-71
2023/06/11 01:14:16;;;;;;;7.10;3.97;;;;;;;18.76;100.00;98572.31;5061081;28;20111;-71
2023/06/11 01:17:15;;;;;;;4.32;3.40;;;;;;;18.80;100.00;98567.94;5070095;28;20394;-71
2023/06/11 01:20:03;;;;;;;4.97;3.60;;;;;;;18.79;100.00;98575.34;5064460;28;20021;-71
2023/06/11 01:22:41;;;;;;;9.30;3.90;;;;;;;18.74;100.00;98571.69;5049528;28;20040;-71
2023/06/11 01:25:24;;;;;;;5.07;3.35;;;;;;;18.70;100.00;98565.09;5039679;28;20640;-71
2023/06/11 01:28:08;;;;;;;4.75;3.50;;;;;;;18.68;100.00;98570.84;5060607;28;20021;-71
2023/06/11 01:30:37;;;;;;;4.07;3.20;;;;;;;18.66;100.00;98572.19;5068544;28;20025;-71
2023/06/11 01:33:03;;;;;;;7.90;3.93;;;;;;;18.60;100.00;98574.03;5059147;28;20103;-72
2023/06/11 01:35:29;;;;;;;7.70;3.72;;;;;;;18.56;100.00;98572.91;5070003;28;20028;-71
2023/06/11 01:37:55;;;;;;;5.30;3.38;;;;;;;18.57;100.00;98569.09;5061733;28;20628;-71
2023/06/11 01:40:28;;;;;;;5.80;3.80;;;;;;;18.57;100.00;98569.09;5039085;28;20068;-71
2023/06/11 01:42:57;;;;;;;4.45;3.28;;;;;;;18.44;100.00;98567.59;5042699;28;20024;-71
2023/06/11 01:45:23;;;;;;;4.28;3.00;;;;;;;18.39;100.00;98551.97;5068666;28;20063;-71
2023/06/11 01:47:49;;;;;;;4.63;3.33;;;;;;;18.48;100.00;98565.19;5069972;28;20120;-71
2023/06/11 01:50:19;;;;;;;5.45;3.60;;;;;;;18.50;100.00;98560.28;5059440;28;20040;-71
2023/06/11 01:52:45;;;;;;;5.47;3.38;;;;;;;18.42;100.00;98574.41;5060295;28;20029;-71
2023/06/11 01:55:10;;;;;;;6.72;3.65;;;;;;;18.39;100.00;98570.28;5057840;28;20025;-71
2023/06/11 01:57:36;;;;;;;5.07;3.60;;;;;;;18.38;100.00;98574.13;5064487;28;20023;-70
2023/06/11 02:00:09;;;;;;;5.85;3.65;;;;;;;18.35;100.00;98574.66;5044419;28;20029;-71
2023/06/11 02:02:35;;;;;;;3.85;3.20;;;;;;;18.33;100.00;98568.59;5061071;28;20036;-71
2023/06/11 02:05:00;;;;;;;5.82;3.55;;;;;;;18.36;100.00;98570.81;5047689;28;20119;-71
2023/06/11 02:07:27;;;;;;;5.05;3.40;;;;;;;18.35;100.00;98561.78;5064888;28;20029;-71
2023/06/11 02:09:52;;;;;;;8.07;3.95;;;;;;;18.36;100.00;98579.84;5045051;28;20024;-71
2023/06/11 02:12:17;;;;;;;5.40;3.22;;;;;;;18.39;100.00;98576.63;5070048;28;20024;-71
2023/06/11 02:14:43;;;;;;;5.85;3.70;;;;;;;18.42;100.00;98567.06;5065894;28;20368;-71
2023/06/11 02:17:09;;;;;;;4.40;3.55;;;;;;;18.42;100.00;98567.06;5072012;28;20025;-71
2023/06/11 02:19:35;;;;;;;4.65;3.63;;;;;;;18.43;100.00;98568.69;5060722;28;20024;-71
2023/06/11 02:22:00;;;;;;;4.70;3.55;;;;;;;18.39;100.00;98567.56;5054353;28;20078;-71
2023/06/11 02:24:26;;;;;;;4.15;3.50;;;;;;;18.31;100.00;98568.88;5064878;28;20107;-71
2023/06/11 02:26:51;;;;;;;4.88;3.65;;;;;;;18.28;100.00;98576.78;5049534;28;20029;-71
2023/06/11 02:29:16;;;;;;;5.30;3.40;;;;;;;18.26;100.00;98581.66;5067187;28;20047;-71
2023/06/11 02:31:42;;;;;;;5.93;3.80;;;;;;;18.21;100.00;98587.94;5073624;28;20485;-71
2023/06/11 02:34:07;;;;;;;4.25;3.63;;;;;;;18.15;100.00;98583.47;5044622;28;20025;-71
2023/06/11 02:36:32;;;;;;;4.72;3.63;;;;;;;18.06;100.00;98582.31;5051353;28;20395;-71
2023/06/11 02:38:57;;;;;;;4.82;3.47;;;;;;;18.06;100.00;98588.59;5041158;28;20025;-70
2023/06/11 02:41:23;;;;;;;3.97;3.15;;;;;;;18.07;100.00;98587.50;5069423;28;20086;-71
2023/06/11 02:43:48;;;;;;;5.78;3.33;;;;;;;18.09;100.00;98582.59;5045403;28;20497;-71
2023/06/11 02:46:13;;;;;;;4.82;3.65;;;;;;;18.10;100.00;98578.81;5069274;28;20428;-71
2023/06/11 02:48:39;;;;;;;5.50;3.75;;;;;;;18.07;100.00;98583.94;5065784;28;20025;-71
2023/06/11 02:51:04;;;;;;;5.05;3.30;;;;;;;17.91;100.00;98588.44;5062504;28;20119;-71
2023/06/11 02:53:29;;;;;;;4.55;3.42;;;;;;;18.01;100.00;98596.75;5056377;28;20047;-71
2023/06/11 02:55:54;;;;;;;4.57;3.67;;;;;;;17.93;100.00;98576.13;5067656;23;20061;-73
2023/06/11 02:58:20;;;;;;;4.43;3.45;;;;;;;17.97;100.00;98592.88;5061159;28;20032;-76
2023/06/11 03:00:45;;;;;;;4.28;3.70;;;;;;;17.81;100.00;98577.34;5032009;28;20024;-74
2023/06/11 03:03:11;;;;;;;6.03;3.65;;;;;;;17.88;100.00;98605.38;5069142;28;20024;-73
2023/06/11 03:05:36;;;;;;;6.15;4.15;;;;;;;17.67;100.00;98580.47;5054447;28;20024;-74
2023/06/11 03:08:01;;;;;;;7.90;4.30;;;;;;;17.64;100.00;98615.72;5055682;28;20032;-74
2023/06/11 03:10:28;;;;;;;4.80;3.75;;;;;;;17.50;100.00;98596.09;5060200;28;20485;-73
2023/06/11 03:12:54;;;;;;;6.13;4.30;;;;;;;17.38;100.00;98603.59;5044705;28;20436;-74
2023/06/11 03:15:19;;;;;;;6.80;3.92;;;;;;;17.31;100.00;98601.03;5054070;28;20056;-74
2023/06/11 03:17:45;;;;;;;6.63;4.00;;;;;;;17.16;100.00;98604.41;5059418;28;20430;-74
2023/06/11 03:20:11;;;;;;;5.85;4.32;;;;;;;16.99;100.00;98598.94;5078378;28;20044;-74
2023/06/11 03:22:36;;;;;;;6.45;4.38;;;;;;;16.89;100.00;98606.16;5061111;28;20053;-77
2023/06/11 03:25:01;;;;;;;5.50;4.05;;;;;;;16.75;100.00;98606.47;5065059;28;20029;-74
2023/06/11 03:27:27;;;;;;;5.32;4.30;;;;;;;16.84;100.00;98610.44;5072689;28;20047;-77
2023/06/11 03:29:52;;;;;;;5.70;4.07;;;;;;;16.83;100.00;98627.13;5076746;28;20100;-74
2023/06/11 03:32:17;;;;;;;5.95;4.53;;;;;;;16.88;100.00;98629.09;5053937;28;20036;-73
2023/06/11 03:34:43;;;;;;;5.05;4.05;;;;;;;16.81;100.00;98624.63;5058814;28;20027;-73
2023/06/11 03:37:08;;;;;;;6.57;4.30;;;;;;;16.61;100.00;98614.16;5042781;28;20017;-74
2023/06/11 03:39:34;;;;;;;5.32;3.95;;;;;;;16.56;100.00;98624.19;5034400;28;20056;-73
2023/06/11 03:42:00;;;;;;;6.70;4.60;;;;;;;16.56;100.00;98627.72;5066467;28;20148;-76
2023/06/11 03:44:26;;;;;;;7.95;4.53;;;;;;;16.60;100.00;98628.88;5071866;28;20434;-76
2023/06/11 03:46:51;;;;;;;5.30;4.40;;;;;;;16.62;100.00;98639.56;5040088;28;20447;-73
2023/06/11 03:49:16;;;;;;;6.10;4.28;;;;;;;16.75;100.00;98641.97;5055475;28;20021;-74
2023/06/11 03:51:41;;;;;;;7.65;4.72;;;;;;;16.72;100.00;98637.00;5060507;28;20029;-73
2023/06/11 03:54:07;;;;;;;8.57;4.43;;;;;;;16.73;100.00;98630.47;5051133;28;20016;-74
2023/06/11 03:56:32;;;;;;;5.53;4.68;;;;;;;16.74;100.00;98637.59;5045838;28;20124;-73
2023/06/11 03:58:57;;;;;;;7.13;5.05;;;;;;;16.74;100.00;98631.28;5051187;28;20056;-74
2023/06/11 04:01:24;;;;;;;6.43;4.60;;;;;;;16.97;100.00;98639.34;5053497;28;20036;-74
2023/06/11 04:03:49;;;;;;;8.77;5.22;;;;;;;16.87;100.00;98631.00;5051917;28;20498;-74
2023/06/11 04:06:16;;;;;;;5.03;4.35;;;;;;;16.95;100.00;98648.88;5048001;28;20024;-73
2023/06/11 04:08:41;;;;;;;6.05;4.78;;;;;;;16.99;100.00;98641.84;5049645;28;20067;-74
2023/06/11 04:11:08;;;;;;;6.97;5.03;;;;;;;17.10;100.00;98638.19;5047530;28;20052;-73
2023/06/11 04:13:33;;;;;;;8.32;4.80;;;;;;;17.09;100.00;98631.91;5063547;28;20024;-73
2023/06/11 04:15:59;;;;;;;6.20;4.70;;;;;;;17.32;100.00;98641.00;5054258;28;20040;-74
2023/06/11 04:18:24;;;;;;;6.32;4.22;;;;;;;17.22;100.00;98630.72;5052529;28;20151;-72
2023/06/11 04:20:49;;;;;;;5.32;4.47;;;;;;;17.31;100.00;98648.34;5034882;28;20490;-73
2023/06/11 04:23:15;;;;;;;5.97;4.40;;;;;;;17.29;100.00;98631.38;5071476;28;20034;-75
2023/06/11 04:25:40;;;;;;;6.63;4.97;;;;;;;17.24;100.00;98639.50;5062263;28;20166;-74
2023/06/11 04:28:05;;;;;;;7.82;4.93;;;;;;;17.27;100.00;98619.88;5049281;28;20032;-74
2023/06/11 04:30:33;;;;;;;6.82;4.70;;;;;;;17.35;100.00;98635.03;5033579;28;20376;-72
2023/06/11 04:33:03;;;;;;;6.72;5.15;;;;;;;17.42;100.00;98652.09;5061260;28;20023;-72
2023/06/11 04:35:34;;;;;;;6.95;4.93;;;;;;;17.46;100.00;98657.88;5052848;28;20024;-75
2023/06/11 04:38:02;;;;;;;9.18;4.57;;;;;;;17.57;100.00;98659.66;5063488;28;20493;-75
2023/06/11 04:40:28;;;;;;;6.20;4.60;;;;;;;17.54;100.00;98654.69;5039776;28;20033;-75
2023/06/11 04:42:53;;;;;;;6.32;4.40;;;;;;;17.60;100.00;98648.22;5057398;28;20594;-74
2023/06/11 04:45:20;;;;;;;6.38;4.63;;;;;;;17.78;100.00;98657.19;5061526;28;20036;-74
2023/06/11 04:47:46;;;;;;;7.20;4.53;;;;;;;17.94;100.00;98664.56;5038003;28;20028;-74
2023/06/11 04:50:12;;;;;;;11.73;4.97;;;;;;;17.92;100.00;98642.94;5034473;28;20032;-76
2023/06/11 04:52:43;;;;;;;9.73;4.93;;;;;;;18.20;100.00;98637.47;5033533;28;20064;-78
2023/06/11 04:55:12;;;;;;;6.80;4.63;;;;;;;18.41;100.00;98639.34;5058452;28;20025;-77
2023/06/11 04:57:38;;;;;;;5.95;4.85;;;;;;;18.70;100.00;98650.03;5038811;28;20028;-77
2023/06/11 05:00:08;;;;;;;6.50;4.55;;;;;;;18.58;100.00;98618.16;5041161;28;20033;-77
2023/06/11 05:02:44;;;;;;;5.40;4.63;;;;;;;18.83;100.00;98633.19;5042388;28;20136;-70
2023/06/11 05:05:10;;;;;;;7.53;5.07;;;;;;;19.05;100.00;98652.31;5054431;28;20028;-70
2023/06/11 05:07:35;;;;;;;11.38;4.75;;;;;;;19.08;100.00;98646.28;5057259;28;20417;-68
2023/06/11 05:10:01;;;;;;;6.35;4.57;;;;;;;19.20;100.00;98654.31;5044798;28;20025;-73
2023/06/11 05:12:26;;;;;;;7.25;4.68;;;;;;;19.19;100.00;98645.25;5049173;28;20104;-74
2023/06/11 05:14:51;;;;;;;7.15;4.95;;;;;;;19.25;100.00;98637.88;5032795;28;20045;-77
2023/06/11 05:17:17;;;;;;;9.45;4.95;;;;;;;19.23;100.00;98648.28;5035790;28;20108;-79
2023/06/11 05:19:42;;;;;;;6.63;4.40;;;;;;;19.34;100.00;98649.22;5048538;28;20020;-78
2023/06/11 05:22:08;;;;;;;7.60;4.78;;;;;;;19.32;100.00;98638.50;5056840;28;20074;-73
2023/06/11 05:24:33;;;;;;;5.57;4.43;;;;;;;19.41;100.00;98650.63;5040305;28;20502;-77
2023/06/11 05:26:59;;;;;;;6.00;4.13;;;;;;;19.51;100.00;98643.53;5051908;28;20037;-77
2023/06/11 05:29:25;;;;;;;8.23;4.53;;;;;;;19.39;100.00;98644.59;5050517;28;20631;-76
2023/06/11 05:31:51;;;;;;;6.38;5.07;;;;;;;19.67;100.00;98662.59;5048925;28;20028;-76
2023/06/11 05:34:17;;;;;;;7.28;5.00;;;;;;;19.83;100.00;98657.19;5036135;28;20020;-77
2023/06/11 05:36:45;;;;;;;5.60;4.25;;;;;;;20.09;100.00;98644.38;5055501;28;20071;-78
2023/06/11 05:39:10;;;;;;;7.90;5.47;;;;;;;20.02;100.00;98657.56;5051152;28;20025;-77
2023/06/11 05:41:35;;;;;;;6.57;4.95;;;;;;;20.12;100.00;98665.81;5045887;28;20031;-77
2023/06/11 05:44:01;;;;;;;7.05;4.75;;;;;;;20.42;100.00;98667.03;5041836;28;20478;-64
2023/06/11 05:46:28;;;;;;;8.02;4.55;;;;;;;20.52;100.00;98654.13;5050411;28;20104;-66
2023/06/11 05:48:53;;;;;;;7.05;4.47;;;;;;;20.68;100.00;98665.19;5049891;28;20069;-74
2023/06/11 05:51:19;;;;;;;5.32;4.05;;;;;;;20.73;100.00;98660.50;5033022;28;20603;-74
2023/06/11 05:53:46;;;;;;;6.38;4.50;;;;;;;20.73;100.00;98648.69;5035874;28;20048;-74
2023/06/11 05:56:11;;;;;;;7.43;5.05;;;;;;;20.93;100.00;98670.72;5030307;28;20055;-77
2023/06/11 05:58:37;;;;;;;5.30;4.40;;;;;;;20.88;100.00;98667.13;5038111;28;20059;-77
2023/06/11 06:01:03;;;;;;;6.75;5.00;;;;;;;20.94;100.00;98663.28;5052476;28;20067;-77
2023/06/11 06:03:30;;;;;;;6.38;4.65;;;;;;;21.20;100.00;98675.94;5032879;28;20026;-74
2023/06/11 06:05:55;;;;;;;5.97;4.25;;;;;;;21.42;100.00;98681.16;5046879;28;20375;-69
2023/06/11 06:08:21;;;;;;;5.30;4.15;;;;;;;21.45;100.00;98682.53;5045640;28;20035;-71
2023/06/11 06:10:46;;;;;;;7.28;4.28;;;;;;;21.49;100.00;98669.88;5050132;28;20428;-70
2023/06/11 06:13:11;;;;;;;8.10;4.22;;;;;;;21.68;100.00;98689.38;5069164;28;20029;-73
2023/06/11 06:15:37;;;;;;;4.93;3.90;;;;;;;21.61;100.00;98680.56;5043436;28;20036;-69
2023/06/11 06:18:03;;;;;;;5.63;4.40;;;;;;;21.67;100.00;98688.56;5047285;28;20454;-69
2023/06/11 06:20:28;;;;;;;5.88;4.13;;;;;;;21.88;100.00;98699.53;5031387;28;20032;-69
2023/06/11 06:22:53;;;;;;;7.07;4.38;;;;;;;22.08;100.00;98688.41;5062477;28;20024;-69
2023/06/11 06:25:19;;;;;;;6.00;4.30;;;;;;;21.92;100.00;98697.84;5055074;28;20090;-69
2023/06/11 06:27:45;;;;;;;6.80;4.50;;;;;;;22.31;100.00;98698.00;5051044;28;20027;-69
2023/06/11 06:30:11;;;;;;;8.13;4.40;;;;;;;22.59;100.00;98683.81;5028124;28;20041;-69
2023/06/11 06:32:38;;;;;;;4.80;3.58;;;;;;;22.85;100.00;98698.25;5054835;28;20427;-67
2023/06/11 06:35:04;;;;;;;7.50;4.22;;;;;;;22.85;100.00;98699.09;5028753;28;20020;-67
2023/06/11 06:37:30;;;;;;;7.25;4.75;;;;;;;22.61;100.00;98695.34;5056675;28;20029;-68
2023/06/11 06:39:55;;;;;;;7.13;4.40;;;;;;;22.77;100.00;98696.94;5058485;28;20106;-68
2023/06/11 06:42:20;;;;;;;6.28;3.83;;;;;;;23.03;100.00;98692.09;5048730;28;20447;-73
2023/06/11 06:44:45;;;;;;;5.40;4.10;;;;;;;23.02;100.00;98670.28;5033047;28;20112;-76
2023/06/11 06:47:11;;;;;;;6.70;3.97;;;;;;;23.27;100.00;98672.84;5039619;28;20024;-75
2023/06/11 06:49:38;;;;;;;5.90;4.07;;;;;;;24.06;100.00;98689.16;5058357;28;20131;-71
2023/06/11 06:52:05;;;;;;;5.25;4.28;;;;;;;25.59;100.00;98681.34;5053818;28;20052;-72
2023/06/11 06:54:30;;;;;;;4.85;3.90;;;;;;;27.66;97.28;98685.66;5053321;28;20064;-72
2023/06/11 06:56:55;;;;;;;5.32;3.50;;;;;;;29.57;77.86;98678.78;5044141;28;20160;-72
2023/06/11 06:59:20;;;;;;;3.95;3.00;;;;;;;30.31;69.77;98691.50;5047578;28;20489;-65
2023/06/11 07:01:46;;;;;;;3.88;3.28;;;;;;;31.22;65.45;98692.66;5057495;28;20029;-71
2023/06/11 07:04:11;;;;;;;5.18;3.42;;;;;;;31.40;64.24;98676.56;5061902;28;20031;-70
2023/06/11 07:06:36;;;;;;;4.97;3.58;;;;;;;32.15;58.31;98683.94;5057407;28;20032;-71
2023/06/11 07:09:03;;;;;;;7.05;3.10;;;;;;;32.25;56.31;98680.69;5038381;28;20040;-71
2023/06/11 07:11:28;;;;;;;5.78;3.35;;;;;;;32.44;56.23;98682.06;5050430;28;20028;-76
2023/06/11 07:13:54;;;;;;;3.92;3.22;;;;;;;32.76;54.63;98676.66;5064524;28;20043;-79
2023/06/11 07:16:19;;;;;;;6.47;3.30;;;;;;;33.38;51.65;98673.31;5037933;28;20029;-75
2023/06/11 07:18:44;;;;;;;3.60;3.17;;;;;;;33.40;52.09;98678.53;5038179;28;20016;-72
2023/06/11 07:21:10;;;;;;;5.32;2.97;;;;;;;34.61;48.69;98672.44;5056384;28;20462;-75
2023/06/11 07:23:35;;;;;;;4.03;3.00;;;;;;;34.86;47.87;98672.16;5055043;28;20028;-76
2023/06/11 07:26:02;;;;;;;3.53;2.80;;;;;;;36.60;44.38;98681.44;5054857;28;20021;-76
2023/06/11 07:28:27;;;;;;;6.03;3.38;;;;;;;36.22;43.13;98683.25;5035108;28;20036;-75
2023/06/11 07:30:54;;;;;;;4.55;2.97;;;;;;;36.49;42.69;98683.25;5045711;28;20390;-75
2023/06/11 07:33:19;;;;;;;4.20;3.10;;;;;;;36.67;42.17;98681.53;5056121;28;20131;-76
2023/06/11 07:35:46;;;;;;;4.40;2.88;;;;;;;37.55;39.75;98677.44;5023005;28;20057;-77
2023/06/11 07:38:12;;;;;;;4.65;3.13;;;;;;;36.38;40.95;98683.09;5026103;28;20482;-77
2023/06/11 07:40:38;;;;;;;9.18;2.88;;;;;;;36.57;40.71;98679.38;5026575;28;20036;-77
2023/06/11 07:43:03;;;;;;;4.55;3.13;;;;;;;36.57;41.15;98687.84;5048612;28;20102;-71
2023/06/11 07:45:28;;;;;;;4.55;2.90;;;;;;;37.85;39.24;98673.69;5054980;28;20127;-76
2023/06/11 07:47:53;;;;;;;3.83;2.67;;;;;;;38.45;37.91;98673.41;5059644;28;20029;-78
2023/06/11 07:50:19;;;;;;;3.33;2.70;;;;;;;38.00;38.11;98681.13;5045448;28;20036;-77
2023/06/11 07:52:44;;;;;;;4.50;2.92;;;;;;;37.99;38.32;98665.41;5040405;28;20021;-78
2023/06/11 07:55:10;;;;;;;4.35;2.97;;;;;;;37.69;36.89;98666.28;5059969;28;20044;-77
2023/06/11 07:57:35;;;;;;;5.18;2.75;;;;;;;37.75;37.78;98675.22;5051919;28;20103;-78
2023/06/11 08:00:01;;;;;;;3.80;2.83;;;;;;;37.18;37.71;98685.84;5066901;28;20104;-69
2023/06/11 08:02:27;;;;;;;5.03;2.90;;;;;;;38.37;37.71;98677.38;5056825;28;20028;-76
2023/06/11 08:04:54;;;;;;;5.32;2.97;;;;;;;38.18;36.46;98674.81;5059407;28;20538;-76
2023/06/11 08:07:19;;;;;;;5.10;2.80;;;;;;;37.92;36.53;98651.16;5054923;28;20095;-77
2023/06/11 08:09:44;;;;;;;4.50;2.50;;;;;;;39.09;35.90;98672.16;5053158;28;20478;-73
2023/06/11 08:12:11;;;;;;;4.00;2.80;;;;;;;37.91;36.27;98683.41;5033060;28;20558;-76
2023/06/11 08:14:37;;;;;;;3.70;2.65;;;;;;;37.38;36.57;98678.03;5053404;28;20061;-75
2023/06/11 08:17:02;;;;;;;5.38;2.65;;;;;;;37.56;36.65;98687.53;5032575;28;20382;-76
2023/06/11 08:19:28;;;;;;;5.30;2.50;;;;;;;38.90;34.72;98679.75;5034173;28;20029;-75
2023/06/11 08:21:56;;;;;;;4.53;2.58;;;;;;;38.06;35.56;98673.91;5053190;28;20025;-74
2023/06/11 08:24:24;;;;;;;5.03;2.53;;;;;;;37.07;36.69;98680.06;5049729;28;20036;-73
2023/06/11 08:26:50;;;;;;;4.35;3.15;;;;;;;37.26;36.96;98676.28;5055208;28;20799;-67
2023/06/11 08:29:16;;;;;;;3.25;2.55;;;;;;;36.81;35.87;98673.28;5051699;28;20046;-75
2023/06/11 08:31:42;;;;;;;4.65;2.60;;;;;;;37.61;35.69;98670.25;5029745;28;20082;-71
2023/06/11 08:34:07;;;;;;;5.45;2.95;;;;;;;36.61;35.79;98671.78;5032292;28;20028;-66
2023/06/11 08:36:33;;;;;;;5.03;2.58;;;;;;;35.54;35.53;98674.38;5056547;28;20020;-65
2023/06/11 08:38:59;;;;;;;4.75;2.80;;;;;;;36.25;34.72;98681.69;5053570;28;20039;-67
2023/06/11 08:41:24;;;;;;;3.88;2.72;;;;;;;36.22;34.06;98680.44;5060092;28;20028;-66
2023/06/11 08:43:50;;;;;;;5.90;3.00;;;;;;;36.76;33.24;98673.63;5038183;28;20119;-66
2023/06/11 08:46:16;;;;;;;3.97;2.83;;;;;;;37.04;33.51;98681.66;5051234;28;20382;-66
2023/06/11 08:48:43;;;;;;;3.55;2.70;;;;;;;37.48;33.45;98674.50;5057543;28;20024;-65
2023/06/11 08:51:10;;;;;;;4.40;2.95;;;;;;;37.92;32.46;98670.94;5034026;28;20029;-70
2023/06/11 08:53:36;;;;;;;4.85;2.60;;;;;;;38.09;31.45;98667.47;5032238;28;20474;-71
2023/06/11 08:58:35;;;;;;;9.53;2.80;;;;;;;39.92;29.60;98665.53;5068172;28;20400;-66
2023/06/11 09:01:11;;;;;;;7.53;2.78;;;;;;;39.87;30.01;98663.91;5062829;28;20044;-66
2023/06/11 09:03:40;;;;;;;3.50;2.47;;;;;;;36.24;31.33;98666.78;5063257;28;20024;-65
2023/06/11 09:06:05;;;;;;;3.95;2.88;;;;;;;35.91;31.73;98658.97;5075418;28;20099;-66
2023/06/11 09:08:31;;;;;;;4.00;3.05;;;;;;;37.38;29.96;98661.91;5074926;28;20118;-67
2023/06/11 09:10:57;;;;;;;4.55;2.70;;;;;;;38.77;28.02;98661.47;5064041;28;20029;-67
2023/06/11 09:13:27;;;;;;;3.67;2.38;;;;;;;38.70;27.03;98656.63;5065777;28;20119;-67
2023/06/11 09:15:54;;;;;;;4.07;2.88;;;;;;;38.19;28.02;98653.81;5070493;28;20167;-67
2023/06/11 09:18:26;;;;;;;5.17;2.50;;;;;;;39.03;27.41;98656.78;5090370;28;20051;-66
2023/06/11 09:21:00;;;;;;;4.95;2.72;;;;;;;39.27;26.56;98661.72;5063696;28;20276;-67
2023/06/11 09:23:31;;;;;;;5.68;2.90;;;;;;;38.31;28.05;98659.19;5079154;28;20157;-67
2023/06/11 09:26:01;;;;;;;3.83;2.85;;;;;;;39.12;27.36;98662.88;5079277;28;20020;-67
2023/06/11 09:28:31;;;;;;;3.88;2.47;;;;;;;39.05;28.21;98660.84;5076128;28;20020;-66
2023/06/11 09:30:58;;;;;;;6.80;3.00;;;;;;;38.26;28.65;98648.25;5060228;28;20081;-66
2023/06/11 09:33:24;;;;;;;3.42;2.72;;;;;;;38.95;28.03;98647.47;5092479;28;20035;-66
2023/06/11 09:35:50;;;;;;;3.92;2.63;;;;;;;38.95;27.76;98648.25;5061980;28;20535;-66
2023/06/11 09:38:20;;;;;;;4.32;2.67;;;;;;;40.07;27.59;98649.34;5072371;28;20107;-65
2023/06/11 09:40:47;;;;;;;5.50;2.88;;;;;;;40.16;27.49;98646.91;5062491;28;20025;-68
2023/06/11 09:43:14;;;;;;;7.68;3.08;;;;;;;39.94;28.50;98639.63;5065901;28;20028;-67
2023/06/11 09:45:41;;;;;;;7.80;2.70;;;;;;;41.26;26.74;98645.00;5072037;28;20040;-68
2023/06/11 09:48:10;;;;;;;4.75;2.75;;;;;;;39.52;27.42;98649.69;5066885;28;20067;-67
2023/06/11 09:50:37;;;;;;;5.30;2.58;;;;;;;38.62;27.94;98637.16;5065887;28;20367;-68
2023/06/11 09:53:03;;;;;;;7.22;2.58;;;;;;;39.96;27.01;98640.06;5065884;28;20028;-67
2023/06/11 09:55:31;;;;;;;4.55;2.70;;;;;;;39.29;27.31;98642.31;5061933;28;20028;-67
2023/06/11 09:57:58;;;;;;;3.75;2.50;;;;;;;38.43;28.17;98639.06;5051866;28;20903;-67
2023/06/11 10:00:23;;;;;;;3.25;2.28;;;;;;;37.93;27.92;98636.63;5055700;28;20091;-67
2023/06/11 10:02:49;;;;;;;4.30;3.00;;;;;;;39.26;27.90;98642.31;5069534;28;20375;-67
2023/06/11 10:05:15;;;;;;;6.53;2.63;;;;;;;40.35;26.21;98656.22;5047369;28;20028;-67
2023/06/11 10:08:02;;;;;;;6.30;2.60;;;;;;;40.62;25.54;98642.41;5054346;28;20021;-68
2023/06/11 10:10:30;;;;;;;10.00;2.67;;;;;;;40.98;25.46;98640.28;5049694;28;20063;-67
2023/06/11 10:12:55;;;;;;;5.03;2.25;;;;;;;41.41;24.05;98614.50;5049756;28;20032;-69
2023/06/11 10:15:23;;;;;;;4.57;2.13;;;;;;;41.25;24.48;98631.25;5050269;28;20119;-68
2023/06/11 10:17:50;;;;;;;7.28;2.88;;;;;;;40.22;24.90;98636.81;5049115;28;20029;-67
2023/06/11 10:20:35;;;;;;;2.67;2.07;;;;;;;40.09;24.92;98642.06;5061729;28;20032;-67
2023/06/11 10:23:09;;;;;;;3.92;2.38;;;;;;;40.89;24.15;98637.88;5050414;28;20150;-67
2023/06/11 10:25:37;;;;;;;5.63;2.55;;;;;;;39.32;23.74;98646.38;5047545;28;20025;-67
2023/06/11 10:28:03;;;;;;;3.95;2.05;;;;;;;39.10;23.88;98639.84;5050002;28;20020;-68
2023/06/11 10:30:29;;;;;;;3.97;2.30;;;;;;;40.11;23.83;98641.63;5054843;28;20038;-68
2023/06/11 10:32:58;;;;;;;3.60;2.28;;;;;;;41.12;22.97;98636.59;5076350;28;20051;-68
2023/06/11 10:35:28;;;;;;;3.45;2.25;;;;;;;40.88;23.84;98639.09;5058736;28;20043;-68
2023/06/11 10:38:16;;;;;;;5.35;2.40;;;;;;;39.99;22.71;98647.75;5055740;28;20059;-67
2023/06/11 10:40:41;;;;;;;5.18;2.15;;;;;;;39.44;23.26;98652.50;5057035;28;20025;-67
2023/06/11 10:43:20;;;;;;;3.53;2.35;;;;;;;40.21;23.02;98640.84;5044448;28;20035;-68
2023/06/11 10:45:46;;;;;;;3.13;2.20;;;;;;;40.81;22.99;98633.44;5055853;28;20046;-68
2023/06/11 10:48:12;;;;;;;5.30;2.50;;;;;;;41.87;22.48;98632.44;5046040;28;20052;-69
2023/06/11 10:50:38;;;;;;;4.65;2.65;;;;;;;42.06;23.29;98636.81;5047914;28;20479;-69
2023/06/11 10:53:14;;;;;;;3.92;2.35;;;;;;;42.60;22.38;98637.09;5049577;28;20029;-70
2023/06/11 10:55:44;;;;;;;4.35;2.35;;;;;;;41.34;23.17;98625.91;5054282;28;20025;-68
2023/06/11 10:58:20;;;;;;;3.47;2.40;;;;;;;40.84;23.70;98632.63;5076841;28;20748;-68
2023/06/11 11:00:46;;;;;;;3.92;2.50;;;;;;;40.17;24.00;98631.53;5068103;28;20071;-69
2023/06/11 11:03:12;;;;;;;3.72;2.67;;;;;;;39.29;23.84;98635.84;5067344;28;20459;-68
2023/06/11 11:05:41;;;;;;;3.95;2.72;;;;;;;39.88;24.69;98634.38;5063304;28;20052;-69
2023/06/11 11:08:06;;;;;;;4.45;2.75;;;;;;;40.68;24.64;98629.44;5067581;28;20029;-69
2023/06/11 11:10:32;;;;;;;3.45;2.45;;;;;;;41.63;23.27;98623.72;5058767;28;20492;-69
2023/06/11 11:12:58;;;;;;;3.95;2.40;;;;;;;42.36;22.85;98630.44;5063584;28;20047;-68
2023/06/11 11:15:24;;;;;;;4.47;2.35;;;;;;;40.98;22.75;98617.59;5058720;28;20036;-68
2023/06/11 11:17:50;;;;;;;5.32;2.80;;;;;;;42.29;23.85;98621.94;5057827;28;20119;-69
2023/06/11 11:20:17;;;;;;;4.90;2.72;;;;;;;41.05;23.20;98614.69;5074822;28;20368;-68
2023/06/11 11:22:55;;;;;;;4.30;3.42;;;;;;;39.12;24.02;98624.09;5075711;28;20024;-68
2023/06/11 11:25:29;;;;;;;6.10;4.25;;;;;;;37.33;26.00;98616.28;5065192;28;20028;-68
2023/06/11 11:27:56;;;;;;;3.65;2.97;;;;;;;37.35;26.07;98616.72;5067113;28;20032;-67
2023/06/11 11:30:22;;;;;;;4.47;3.10;;;;;;;37.65;26.16;98617.47;5066171;28;20090;-67